| time (UTC) | temp C | wind direction | speed KPH | gust KPH | rain 1hr cm | rain 24hr cm | rain mn cm | humidity % | barometer mb |
| 20260903073519 | 21 | 265 | 1.6 | 6.4 | 0.03 | 0.86 | 0.15 | 88 | 1012.8 |
| 20260903073037 | 21 | 229 | 3.2 | 6.4 | 0.03 | 0.86 | 0.15 | 87 | 1012.9 |
| 20260903072518 | 21 | 242 | 1.6 | 3.2 | 0.08 | 0.86 | 0.15 | 87 | 1012.6 |
| 20260903072012 | 21 | 213 | 1.6 | 4.8 | 0.08 | 0.86 | 0.15 | 86 | 1012.6 |
| 20260903071530 | 21 | 244 | 1.6 | 9.7 | 0.08 | 0.86 | 0.15 | 86 | 1012.9 |
| 20260903071017 | 21 | 271 | 3.2 | 11.3 | 0.08 | 0.86 | 0.15 | 86 | 1013.2 |
| 20260903070515 | 21 | 225 | 1.6 | 11.3 | 0.08 | 0.86 | 0.15 | 85 | 1013.2 |
| 20260903070031 | 21 | 205 | 4.8 | 12.9 | 0.08 | 0.86 | 0.15 | 86 | 1013.3 |
| 20260903065517 | 21 | 220 | 6.4 | 16.1 | 0.08 | 0.86 | 0.15 | 87 | 1013.4 |
| 20260903065021 | 21 | 209 | 8.0 | 16.1 | 0.08 | 0.86 | 0.15 | 87 | 1013.4 |
| 20260903064534 | 21 | 234 | 9.7 | 24.1 | 0.05 | 0.84 | 0.13 | 87 | 1013.0 |
| 20260903064014 | 21 | 222 | 4.8 | 25.7 | 0.05 | 0.84 | 0.13 | 87 | 1012.9 |
| 20260903063516 | 21 | 262 | 11.3 | 25.7 | 0.05 | 0.84 | 0.13 | 89 | 1012.8 |
| 20260903063033 | 21 | 243 | 12.9 | 25.7 | 0.05 | 0.84 | 0.13 | 91 | 1013.3 |
| 20260903062518 | 21 | 240 | 4.8 | 9.7 | 0.00 | 0.79 | 0.08 | 92 | 1013.6 |
| 20260903062016 | 21 | 265 | 3.2 | 6.4 | 0.00 | 0.79 | 0.08 | 91 | 1013.3 |
| 20260903061518 | 21 | 213 | 0.0 | 3.2 | 0.00 | 0.79 | 0.08 | 91 | 1013.2 |
| 20260903061015 | 21 | 188 | 1.6 | 3.2 | 0.00 | 0.79 | 0.08 | 91 | 1013.0 |
| 20260903060511 | 21 | 51 | 0.0 | 3.2 | 0.03 | 0.79 | 0.08 | 91 | 1012.9 |
| 20260903060025 | 21 | 51 | 0.0 | 1.6 | 0.03 | 0.79 | 0.08 | 91 | 1013.1 |
| 20260903055516 | 21 | 51 | 0.0 | 3.2 | 0.05 | 0.79 | 0.08 | 91 | 1013.1 |
| 20260903055017 | 21 | 51 | 1.6 | 3.2 | 0.08 | 0.79 | 0.08 | 91 | 1013.2 |
| 20260903054507 | 21 | 55 | 0.0 | 3.2 | 0.08 | 0.79 | 0.08 | 91 | 1013.3 |
| 20260903054009 | 21 | 66 | 0.0 | 3.2 | 0.08 | 0.79 | 0.08 | 91 | 1013.3 |
| 20260903053509 | 21 | 66 | 1.6 | 3.2 | 0.08 | 0.79 | 0.08 | 90 | 1013.2 |
| 20260903053017 | 21 | 97 | 0.0 | 4.8 | 0.08 | 0.79 | 0.08 | 90 | 1013.3 |
| 20260903052517 | 21 | 19 | 0.0 | 4.8 | 0.08 | 0.79 | 0.08 | 90 | 1013.2 |
| 20260903052013 | 21 | 244 | 1.6 | 4.8 | 0.08 | 0.79 | 0.08 | 90 | 1013.3 |
| 20260903051528 | 21 | 244 | 1.6 | 6.4 | 0.08 | 0.79 | 0.08 | 90 | 1013.4 |
| 20260903051015 | 21 | 233 | 0.0 | 6.4 | 0.08 | 0.79 | 0.08 | 89 | 1013.3 |
| 20260903050506 | 21 | 228 | 4.8 | 6.4 | 0.05 | 0.76 | 0.05 | 89 | 1013.5 |
| 20260903050017 | 21 | 236 | 0.0 | 3.2 | 0.05 | 0.76 | 0.05 | 88 | 1013.3 |
| 20260903045508 | 21 | 234 | 1.6 | 8.0 | 0.03 | 0.74 | 0.03 | 88 | 1013.4 |
| 20260903045016 | 21 | 227 | 4.8 | 11.3 | 0.00 | 0.71 | 0.00 | 89 | 1013.6 |
| 20260903044528 | 21 | 234 | 4.8 | 11.3 | 0.00 | 0.71 | 0.00 | 89 | 1013.7 |
| 20260903044017 | 21 | 203 | 0.0 | 4.8 | 0.00 | 0.71 | 0.00 | 89 | 1013.5 |
| 20260903043517 | 21 | 193 | 1.6 | 4.8 | 0.00 | 0.71 | 0.00 | 88 | 1013.4 |
| 20260903043030 | 21 | 227 | 1.6 | 6.4 | 0.05 | 0.71 | 0.00 | 88 | 1013.5 |
| 20260903042504 | 22 | 250 | 1.6 | 6.4 | 0.41 | 0.71 | 0.00 | 88 | 1013.3 |
| 20260903042007 | 22 | 261 | 3.2 | 11.3 | 0.66 | 0.71 | 0.00 | 88 | 1013.1 |
| 20260903041512 | 22 | 292 | 1.6 | 11.3 | 0.69 | 0.71 | 0.00 | 88 | 1012.9 |
| 20260903041015 | 22 | 239 | 4.8 | 11.3 | 0.69 | 0.71 | 0.00 | 88 | 1013.4 |
| 20260903040514 | 22 | 234 | 4.8 | 12.9 | 0.69 | 0.71 | 0.00 | 88 | 1013.5 |
| 20260903040031 | 22 | 150 | 6.4 | 12.9 | 0.71 | 0.71 | 0.00 | 88 | 1013.3 |
| 20260903035518 | 22 | 182 | 6.4 | 12.9 | 0.71 | 0.71 | 0.71 | 88 | 1013.4 |
| 20260903035015 | 22 | 175 | 6.4 | 9.7 | 0.71 | 0.71 | 0.71 | 87 | 1013.8 |
| 20260903034507 | 23 | 172 | 3.2 | 11.3 | 0.71 | 0.71 | 0.71 | 87 | 1013.6 |
| 20260903034008 | 23 | 186 | 1.6 | 11.3 | 0.71 | 0.71 | 0.71 | 88 | 1013.5 |
| 20260903033512 | 23 | 196 | 3.2 | 11.3 | 0.71 | 0.71 | 0.71 | 87 | 1013.7 |
| 20260903033028 | 23 | 166 | 6.4 | 17.7 | 0.66 | 0.66 | 0.66 | 87 | 1013.6 |
| 20260903032515 | 23 | 253 | 8.0 | 22.5 | 0.30 | 0.30 | 0.30 | 86 | 1014.3 |
| 20260903032015 | 23 | 241 | 8.0 | 20.9 | 0.05 | 0.05 | 0.05 | 83 | 1013.5 |
| 20260903031539 | 24 | 201 | 8.0 | 11.3 | 0.03 | 0.03 | 0.03 | 82 | 1013.5 |
| 20260903031021 | 24 | 174 | 1.6 | 9.7 | 0.03 | 0.03 | 0.03 | 81 | 1012.8 |
| 20260903030508 | 24 | 196 | 4.8 | 9.7 | 0.03 | 0.03 | 0.03 | 80 | 1013.3 |
| 20260903030020 | 25 | 188 | 4.8 | 8.0 | 0.00 | 0.00 | 0.00 | 78 | 1013.1 |
| 20260903025512 | 25 | 82 | 0.0 | 4.8 | 0.00 | 0.00 | 0.00 | 77 | 1012.1 |
| 20260903025011 | 25 | 72 | 1.6 | 4.8 | 0.00 | 0.00 | 0.00 | 77 | 1012.0 |
| 20260903024525 | 25 | 53 | 0.0 | 6.4 | 0.00 | 0.00 | 0.00 | 76 | 1011.8 |
| 20260903024016 | 25 | 49 | 1.6 | 6.4 | 0.00 | 0.00 | 0.00 | 76 | 1011.3 |
| 20260903023518 | 25 | 76 | 1.6 | 9.7 | 0.00 | 0.00 | 0.00 | 76 | 1011.5 |
| 20260903023034 | 25 | 67 | 1.6 | 16.1 | 0.00 | 0.00 | 0.00 | 76 | 1012.2 |
| 20260903022504 | 25 | 60 | 3.2 | 16.1 | 0.00 | 0.00 | 0.00 | 76 | 1012.0 |
| 20260903022013 | 25 | 44 | 6.4 | 17.7 | 0.00 | 0.00 | 0.00 | 75 | 1012.1 |
| 20260903021516 | 25 | 57 | 9.7 | 17.7 | 0.00 | 0.00 | 0.00 | 74 | 1012.5 |
| 20260903021012 | 26 | 37 | 11.3 | 17.7 | 0.00 | 0.00 | 0.00 | 74 | 1012.8 |
| 20260903020518 | 26 | 32 | 11.3 | 17.7 | 0.00 | 0.00 | 0.00 | 73 | 1012.9 |
| 20260903020035 | 26 | 352 | 4.8 | 11.3 | 0.00 | 0.00 | 0.00 | 73 | 1013.0 |
| 20260903015516 | 26 | 67 | 3.2 | 12.9 | 0.00 | 0.00 | 0.00 | 72 | 1012.7 |
| 20260903015018 | 27 | 31 | 4.8 | 12.9 | 0.00 | 0.00 | 0.00 | 71 | 1012.4 |
| 20260903014513 | 27 | 64 | 3.2 | 19.3 | 0.00 | 0.00 | 0.00 | 71 | 1012.5 |
| 20260903014007 | 28 | 32 | 6.4 | 19.3 | 0.00 | 0.00 | 0.00 | 70 | 1012.3 |
| 20260903013518 | 28 | 19 | 4.8 | 6.4 | 0.00 | 0.00 | 0.00 | 68 | 1012.2 |
| 20260903013028 | 28 | 347 | 1.6 | 6.4 | 0.00 | 0.00 | 0.00 | 67 | 1012.1 |
| 20260903012516 | 28 | 360 | 3.2 | 4.8 | 0.00 | 0.00 | 0.00 | 66 | 1012.1 |
| 20260903012014 | 29 | 298 | 1.6 | 4.8 | 0.00 | 0.00 | 0.00 | 66 | 1012.1 |
| 20260903011543 | 29 | 330 | 1.6 | 8.0 | 0.00 | 0.00 | 0.00 | 65 | 1012.1 |
| 20260903011018 | 30 | 12 | 3.2 | 9.7 | 0.00 | 0.00 | 0.00 | 63 | 1012.0 |
| 20260903010507 | 30 | 13 | 4.8 | 9.7 | 0.00 | 0.00 | 0.00 | 62 | 1011.9 |
| 20260903010020 | 31 | 9 | 3.2 | 6.4 | 0.00 | 0.00 | 0.00 | 60 | 1011.8 |
| 20260903005513 | 31 | 344 | 1.6 | 4.8 | 0.00 | 0.00 | 0.00 | 58 | 1011.6 |
| 20260903005015 | 31 | 319 | 1.6 | 11.3 | 0.00 | 0.00 | 0.00 | 58 | 1011.7 |
| 20260903004531 | 32 | 296 | 1.6 | 12.9 | 0.00 | 0.00 | 0.00 | 54 | 1011.6 |
| 20260903004018 | 32 | 248 | 3.2 | 14.5 | 0.00 | 0.00 | 0.00 | 54 | 1011.7 |
| 20260903003514 | 32 | 261 | 6.4 | 14.5 | 0.00 | 0.00 | 0.00 | 53 | 1011.6 |
| 20260903003031 | 32 | 252 | 8.0 | 14.5 | 0.00 | 0.00 | 0.00 | 53 | 1011.6 |
| 20260903002512 | 32 | 273 | 6.4 | 12.9 | 0.00 | 0.00 | 0.00 | 52 | 1011.5 |
| 20260903002008 | 32 | 265 | 6.4 | 14.5 | 0.00 | 0.00 | 0.00 | 52 | 1011.3 |
| 20260903001523 | 32 | 250 | 6.4 | 14.5 | 0.00 | 0.00 | 0.00 | 52 | 1011.3 |
| 20260903001015 | 32 | 261 | 4.8 | 12.9 | 0.00 | 0.00 | 0.00 | 52 | 1011.3 |
| 20260903000516 | 32 | 254 | 4.8 | 14.5 | 0.00 | 0.00 | 0.00 | 51 | 1011.3 |
| 20260903000041 | 32 | 262 | 8.0 | 14.5 | 0.00 | 0.00 | 0.00 | 51 | 1011.2 |
| 20260902235518 | 32 | 239 | 8.0 | 14.5 | 0.00 | 0.00 | 0.00 | 51 | 1011.3 |
| 20260902235021 | 32 | 250 | 3.2 | 16.1 | 0.00 | 0.00 | 0.00 | 51 | 1011.4 |
| 20260902234517 | 32 | 273 | 6.4 | 16.1 | 0.00 | 0.00 | 0.00 | 51 | 1011.5 |
| 20260902234011 | 32 | 257 | 8.0 | 20.9 | 0.00 | 0.00 | 0.00 | 50 | 1011.6 |
| 20260902233512 | 32 | 206 | 8.0 | 20.9 | 0.00 | 0.00 | 0.00 | 50 | 1011.6 |
| 20260902233043 | 33 | 223 | 9.7 | 19.3 | 0.00 | 0.00 | 0.00 | 50 | 1011.7 |
| 20260902232515 | 33 | 242 | 6.4 | 19.3 | 0.00 | 0.00 | 0.00 | 50 | 1011.8 |
| 20260902232016 | 33 | 251 | 6.4 | 17.7 | 0.00 | 0.00 | 0.00 | 50 | 1011.8 |
| 20260902231534 | 33 | 277 | 3.2 | 11.3 | 0.00 | 0.00 | 0.00 | 50 | 1011.6 |
| 20260902231018 | 33 | 248 | 3.2 | 14.5 | 0.00 | 0.00 | 0.00 | 50 | 1011.7 |
| 20260902230513 | 33 | 264 | 6.4 | 20.9 | 0.00 | 0.00 | 0.00 | 49 | 1011.8 |
| 20260902230017 | 33 | 265 | 8.0 | 20.9 | 0.00 | 0.00 | 0.00 | 48 | 1011.7 |
| 20260902225512 | 33 | 257 | 11.3 | 27.4 | 0.00 | 0.00 | 0.00 | 48 | 1011.5 |
| 20260902225016 | 33 | 248 | 12.9 | 29.0 | 0.00 | 0.00 | 0.00 | 48 | 1011.5 |
| 20260902224529 | 33 | 242 | 16.1 | 30.6 | 0.00 | 0.00 | 0.00 | 47 | 1011.3 |
| 20260902224015 | 33 | 248 | 11.3 | 30.6 | 0.00 | 0.00 | 0.00 | 47 | 1011.2 |
| 20260902223520 | 33 | 253 | 11.3 | 30.6 | 0.00 | 0.00 | 0.00 | 48 | 1011.1 |
| 20260902223034 | 33 | 237 | 14.5 | 30.6 | 0.00 | 0.00 | 0.00 | 48 | 1011.1 |
| 20260902222510 | 33 | 259 | 11.3 | 29.0 | 0.00 | 0.00 | 0.00 | 49 | 1011.1 |
| 20260902222012 | 33 | 231 | 9.7 | 29.0 | 0.00 | 0.00 | 0.00 | 49 | 1011.1 |
| 20260902221524 | 34 | 300 | 12.9 | 24.1 | 0.00 | 0.00 | 0.00 | 48 | 1011.0 |
| 20260902221015 | 34 | 240 | 11.3 | 24.1 | 0.00 | 0.00 | 0.00 | 47 | 1011.0 |
| 20260902220518 | 34 | 223 | 6.4 | 25.7 | 0.00 | 0.00 | 0.00 | 47 | 1011.0 |
| 20260902220042 | 35 | 257 | 9.7 | 25.7 | 0.00 | 0.00 | 0.00 | 46 | 1010.9 |
| 20260902215515 | 35 | 248 | 9.7 | 24.1 | 0.00 | 0.00 | 0.00 | 46 | 1011.0 |
| 20260902215020 | 35 | 21 | 14.5 | 27.4 | 0.00 | 0.00 | 0.00 | 46 | 1011.1 |
| 20260902214533 | 35 | 191 | 11.3 | 27.4 | 0.00 | 0.00 | 0.00 | 46 | 1011.2 |
| 20260902214014 | 35 | 269 | 11.3 | 30.6 | 0.00 | 0.00 | 0.00 | 45 | 1011.2 |
| 20260902213514 | 35 | 259 | 14.5 | 35.4 | 0.00 | 0.00 | 0.00 | 45 | 1011.3 |
| 20260902213030 | 35 | 281 | 19.3 | 35.4 | 0.00 | 0.00 | 0.00 | 43 | 1011.3 |
| 20260902212516 | 35 | 284 | 9.7 | 25.7 | 0.00 | 0.00 | 0.00 | 46 | 1011.3 |
| 20260902212018 | 35 | 315 | 12.9 | 25.7 | 0.00 | 0.00 | 0.00 | 45 | 1011.3 |
| 20260902211535 | 35 | 260 | 11.3 | 32.2 | 0.00 | 0.00 | 0.00 | 46 | 1011.2 |
| 20260902211021 | 35 | 240 | 9.7 | 40.2 | 0.00 | 0.00 | 0.00 | 46 | 1011.2 |
| 20260902210512 | 35 | 249 | 19.3 | 40.2 | 0.00 | 0.00 | 0.00 | 44 | 1011.1 |
| 20260902210025 | 35 | 308 | 11.3 | 24.1 | 0.00 | 0.00 | 0.00 | 44 | 1011.2 |
| 20260902205516 | 35 | 294 | 12.9 | 24.1 | 0.00 | 0.00 | 0.00 | 43 | 1011.1 |
| 20260902205003 | 35 | 254 | 8.0 | 24.1 | 0.00 | 0.00 | 0.00 | 44 | 1011.4 |
| 20260902204504 | 35 | 270 | 12.9 | 24.1 | 0.00 | 0.00 | 0.00 | 43 | 1011.3 |
| 20260902204004 | 35 | 302 | 16.1 | 30.6 | 0.00 | 0.00 | 0.00 | 40 | 1011.4 |
| 20260902203506 | 36 | 254 | 12.9 | 30.6 | 0.00 | 0.00 | 0.00 | 41 | 1011.4 |
| 20260902203015 | 36 | 322 | 14.5 | 29.0 | 0.00 | 0.00 | 0.00 | 40 | 1011.4 |
| 20260902202512 | 36 | 267 | 16.1 | 29.0 | 0.00 | 0.00 | 0.00 | 39 | 1011.4 |
| 20260902202012 | 36 | 267 | 14.5 | 27.4 | 0.00 | 0.00 | 0.00 | 40 | 1011.5 |
| 20260902201536 | 36 | 253 | 11.3 | 24.1 | 0.00 | 0.00 | 0.00 | 41 | 1011.7 |
| 20260902201002 | 36 | 251 | 12.9 | 20.9 | 0.00 | 0.00 | 0.00 | 41 | 1011.7 |
| 20260902200502 | 35 | 289 | 11.3 | 22.5 | 0.00 | 0.00 | 0.00 | 40 | 1011.8 |
| 20260902200006 | 35 | 275 | 9.7 | 29.0 | 0.00 | 0.00 | 0.00 | 40 | 1011.7 |
| 20260902195506 | 35 | 266 | 16.1 | 29.0 | 0.00 | 0.00 | 0.00 | 38 | 1011.8 |
| 20260902195007 | 36 | 269 | 14.5 | 29.0 | 0.00 | 0.00 | 0.00 | 38 | 1011.9 |
| 20260902194517 | 36 | 304 | 11.3 | 29.0 | 0.00 | 0.00 | 0.00 | 38 | 1011.9 |
| 20260902194015 | 36 | 248 | 9.7 | 27.4 | 0.00 | 0.00 | 0.00 | 40 | 1012.0 |
| 20260902193512 | 36 | 283 | 16.1 | 27.4 | 0.00 | 0.00 | 0.00 | 39 | 1012.1 |
| 20260902193005 | 36 | 232 | 14.5 | 27.4 | 0.00 | 0.00 | 0.00 | 38 | 1012.0 |
| 20260902192503 | 36 | 273 | 11.3 | 22.5 | 0.00 | 0.00 | 0.00 | 42 | 1012.2 |
| 20260902192007 | 36 | 307 | 8.0 | 22.5 | 0.00 | 0.00 | 0.00 | 42 | 1012.2 |
| 20260902191517 | 36 | 250 | 11.3 | 22.5 | 0.00 | 0.00 | 0.00 | 41 | 1012.3 |
| 20260902191009 | 36 | 240 | 9.7 | 22.5 | 0.00 | 0.00 | 0.00 | 43 | 1012.3 |
| 20260902190514 | 35 | 279 | 12.9 | 25.7 | 0.00 | 0.00 | 0.00 | 43 | 1012.3 |
| 20260902190027 | 35 | 282 | 14.5 | 25.7 | 0.00 | 0.00 | 0.00 | 41 | 1012.3 |
| 20260902185516 | 35 | 318 | 12.9 | 29.0 | 0.00 | 0.00 | 0.00 | 42 | 1012.3 |
| 20260902185006 | 35 | 241 | 16.1 | 29.0 | 0.00 | 0.00 | 0.00 | 41 | 1012.3 |
| 20260902184513 | 35 | 257 | 16.1 | 29.0 | 0.00 | 0.00 | 0.00 | 42 | 1012.3 |
| 20260902184010 | 35 | 244 | 9.7 | 25.7 | 0.00 | 0.00 | 0.00 | 45 | 1012.2 |
| 20260902183507 | 35 | 246 | 6.4 | 16.1 | 0.00 | 0.00 | 0.00 | 47 | 1012.2 |
| 20260902183018 | 35 | 279 | 4.8 | 22.5 | 0.00 | 0.00 | 0.00 | 47 | 1012.2 |
| 20260902182511 | 35 | 285 | 9.7 | 22.5 | 0.00 | 0.00 | 0.00 | 45 | 1012.3 |
| 20260902182012 | 35 | 271 | 12.9 | 29.0 | 0.00 | 0.00 | 0.00 | 46 | 1012.4 |
| 20260902181525 | 35 | 270 | 12.9 | 29.0 | 0.00 | 0.00 | 0.00 | 46 | 1012.7 |
| 20260902181004 | 35 | 266 | 8.0 | 24.1 | 0.00 | 0.00 | 0.00 | 47 | 1012.8 |
| 20260902180508 | 35 | 235 | 11.3 | 24.1 | 0.00 | 0.00 | 0.00 | 48 | 1012.9 |
| 20260902180010 | 35 | 263 | 8.0 | 22.5 | 0.00 | 0.00 | 0.00 | 48 | 1013.0 |
| 20260902175510 | 35 | 221 | 11.3 | 24.1 | 0.00 | 0.00 | 0.00 | 47 | 1013.1 |
| 20260902175015 | 35 | 261 | 12.9 | 24.1 | 0.00 | 0.00 | 0.00 | 49 | 1013.2 |
| 20260902174522 | 34 | 259 | 11.3 | 19.3 | 0.00 | 0.00 | 0.00 | 52 | 1013.2 |
| 20260902174013 | 34 | 257 | 11.3 | 19.3 | 0.00 | 0.00 | 0.00 | 51 | 1013.1 |
| 20260902173518 | 33 | 213 | 8.0 | 19.3 | 0.00 | 0.00 | 0.00 | 53 | 1013.3 |
| 20260902173011 | 33 | 237 | 8.0 | 16.1 | 0.00 | 0.00 | 0.00 | 53 | 1013.4 |
| 20260902172511 | 33 | 260 | 8.0 | 16.1 | 0.00 | 0.00 | 0.00 | 55 | 1013.6 |
| 20260902172009 | 33 | 248 | 6.4 | 17.7 | 0.00 | 0.00 | 0.00 | 54 | 1013.7 |
| 20260902171515 | 33 | 302 | 9.7 | 19.3 | 0.00 | 0.00 | 0.00 | 53 | 1013.7 |
| 20260902171014 | 33 | 317 | 11.3 | 19.3 | 0.00 | 0.00 | 0.00 | 52 | 1013.9 |
| 20260902170512 | 33 | 253 | 8.0 | 22.5 | 0.00 | 0.00 | 0.00 | 52 | 1013.8 |
| 20260902170028 | 33 | 253 | 11.3 | 25.7 | 0.00 | 0.00 | 0.00 | 51 | 1013.9 |
| 20260902165522 | 33 | 338 | 8.0 | 25.7 | 0.00 | 0.00 | 0.00 | 50 | 1014.0 |
| 20260902165005 | 34 | 309 | 8.0 | 22.5 | 0.00 | 0.00 | 0.00 | 51 | 1013.9 |
| 20260902164508 | 34 | 327 | 6.4 | 17.7 | 0.00 | 0.00 | 0.00 | 50 | 1013.8 |
| 20260902164005 | 34 | 253 | 9.7 | 19.3 | 0.00 | 0.00 | 0.00 | 51 | 1013.8 |
| 20260902163511 | 33 | 259 | 11.3 | 19.3 | 0.00 | 0.00 | 0.00 | 50 | 1013.8 |
| 20260902163018 | 33 | 240 | 12.9 | 19.3 | 0.00 | 0.00 | 0.00 | 51 | 1013.8 |
| 20260902162514 | 33 | 254 | 8.0 | 17.7 | 0.00 | 0.00 | 0.00 | 51 | 1013.7 |
| 20260902162016 | 33 | 240 | 9.7 | 19.3 | 0.00 | 0.00 | 0.00 | 51 | 1013.8 |
| 20260902161531 | 33 | 236 | 12.9 | 19.3 | 0.00 | 0.00 | 0.00 | 51 | 1013.9 |
| 20260902161007 | 33 | 222 | 11.3 | 20.9 | 0.00 | 0.00 | 0.00 | 52 | 1014.0 |
| 20260902160506 | 33 | 264 | 12.9 | 20.9 | 0.00 | 0.00 | 0.00 | 53 | 1013.9 |
| 20260902160013 | 33 | 233 | 8.0 | 19.3 | 0.00 | 0.00 | 0.00 | 55 | 1013.9 |
| 20260902155515 | 33 | 254 | 6.4 | 19.3 | 0.00 | 0.00 | 0.00 | 55 | 1014.0 |
| 20260902155014 | 32 | 213 | 4.8 | 14.5 | 0.00 | 0.00 | 0.00 | 56 | 1013.9 |
| 20260902154538 | 32 | 279 | 4.8 | 19.3 | 0.00 | 0.00 | 0.00 | 56 | 1014.1 |
| 20260902154017 | 32 | 323 | 8.0 | 22.5 | 0.00 | 0.00 | 0.00 | 57 | 1014.0 |
| 20260902153517 | 32 | 251 | 6.4 | 22.5 | 0.00 | 0.00 | 0.00 | 57 | 1014.0 |
| 20260902153006 | 32 | 238 | 8.0 | 20.9 | 0.00 | 0.00 | 0.00 | 58 | 1014.0 |
| 20260902152506 | 32 | 245 | 11.3 | 20.9 | 0.00 | 0.00 | 0.00 | 59 | 1014.0 |
| 20260902152007 | 31 | 228 | 12.9 | 19.3 | 0.00 | 0.00 | 0.00 | 61 | 1014.0 |
| 20260902151517 | 31 | 228 | 6.4 | 14.5 | 0.00 | 0.00 | 0.00 | 65 | 1014.1 |
| 20260902151014 | 31 | 259 | 6.4 | 12.9 | 0.00 | 0.00 | 0.00 | 64 | 1014.0 |
| 20260902150516 | 31 | 261 | 6.4 | 12.9 | 0.00 | 0.00 | 0.00 | 66 | 1014.1 |
| 20260902150029 | 30 | 248 | 8.0 | 14.5 | 0.00 | 0.00 | 0.00 | 66 | 1014.1 |
| 20260902145517 | 30 | 246 | 8.0 | 14.5 | 0.00 | 0.00 | 0.00 | 68 | 1014.1 |
| 20260902145003 | 30 | 263 | 6.4 | 11.3 | 0.00 | 0.00 | 0.00 | 69 | 1014.1 |
| 20260902144511 | 30 | 261 | 4.8 | 12.9 | 0.00 | 0.00 | 0.00 | 70 | 1014.1 |
| 20260902144009 | 30 | 248 | 6.4 | 12.9 | 0.00 | 0.00 | 0.00 | 71 | 1014.0 |
| 20260902143510 | 29 | 292 | 6.4 | 12.9 | 0.00 | 0.00 | 0.00 | 72 | 1014.0 |
| 20260902143024 | 29 | 180 | 4.8 | 11.3 | 0.00 | 0.00 | 0.00 | 73 | 1014.0 |
| 20260902142520 | 28 | 252 | 4.8 | 9.7 | 0.00 | 0.00 | 0.00 | 74 | 1014.0 |
| 20260902142018 | 28 | 238 | 3.2 | 9.7 | 0.00 | 0.00 | 0.00 | 75 | 1014.1 |
| 20260902141529 | 28 | 254 | 1.6 | 9.7 | 0.00 | 0.00 | 0.00 | 76 | 1014.1 |
| 20260902141003 | 28 | 270 | 4.8 | 9.7 | 0.00 | 0.00 | 0.00 | 1014.1 | |
| 20260902140507 | 28 | 244 | 3.2 | 11.3 | 0.00 | 0.00 | 0.00 | 77 | 1014.1 |
| 20260902140013 | 28 | 216 | 4.8 | 14.5 | 0.00 | 0.00 | 0.00 | 77 | 1014.1 |
| 20260902135511 | 28 | 232 | 8.0 | 14.5 | 0.00 | 0.00 | 0.00 | 77 | 1014.1 |
| 20260902135011 | 28 | 247 | 4.8 | 14.5 | 0.00 | 0.00 | 0.00 | 78 | 1014.3 |
| 20260902134526 | 27 | 238 | 6.4 | 14.5 | 0.00 | 0.00 | 0.00 | 79 | 1014.2 |
| 20260902134013 | 27 | 290 | 6.4 | 14.5 | 0.00 | 0.00 | 0.00 | 79 | 1014.3 |
| 20260902133521 | 27 | 250 | 4.8 | 12.9 | 0.00 | 0.00 | 0.00 | 80 | 1014.2 |
| 20260902133008 | 27 | 221 | 4.8 | 12.9 | 0.00 | 0.00 | 0.00 | 81 | 1014.1 |
| 20260902132511 | 27 | 216 | 4.8 | 11.3 | 0.00 | 0.00 | 0.00 | 81 | 1014.2 |
| 20260902132011 | 27 | 225 | 3.2 | 8.0 | 0.00 | 0.00 | 0.00 | 81 | 1014.2 |
| 20260902131519 | 26 | 243 | 4.8 | 8.0 | 0.00 | 0.00 | 0.00 | 82 | 1014.1 |
| 20260902131020 | 26 | 252 | 4.8 | 6.4 | 0.00 | 0.00 | 0.00 | 82 | 1014.1 |
| 20260902130516 | 26 | 267 | 1.6 | 12.9 | 0.00 | 0.00 | 0.00 | 83 | 1014.1 |
| 20260902130029 | 26 | 250 | 4.8 | 12.9 | 0.00 | 0.00 | 0.00 | 82 | 1014.1 |
| 20260902125519 | 26 | 249 | 4.8 | 9.7 | 0.00 | 0.00 | 0.00 | 83 | 1014.1 |
| 20260902125007 | 26 | 267 | 4.8 | 9.7 | 0.00 | 0.00 | 0.00 | 84 | 1014.2 |
| 20260902124514 | 25 | 258 | 3.2 | 8.0 | 0.00 | 0.00 | 0.00 | 84 | 1014.0 |
| 20260902124008 | 25 | 300 | 3.2 | 9.7 | 0.00 | 0.00 | 0.00 | 84 | 1014.0 |
| 20260902123512 | 25 | 290 | 3.2 | 11.3 | 0.00 | 0.00 | 0.00 | 85 | 1014.0 |
| 20260902123029 | 25 | 234 | 4.8 | 14.5 | 0.00 | 0.00 | 0.00 | 85 | 1013.9 |
| 20260902122516 | 25 | 229 | 3.2 | 14.5 | 0.00 | 0.00 | 0.00 | 85 | 1014.0 |
| 20260902122015 | 25 | 247 | 4.8 | 12.9 | 0.00 | 0.00 | 0.00 | 86 | 1014.0 |
| 20260902121534 | 25 | 235 | 4.8 | 9.7 | 0.00 | 0.00 | 0.00 | 86 | 1014.1 |
| 20260902121007 | 25 | 251 | 4.8 | 14.5 | 0.00 | 0.00 | 0.00 | 86 | 1014.1 |
| 20260902120509 | 24 | 253 | 6.4 | 14.5 | 0.00 | 0.00 | 0.00 | 86 | 1014.2 |
| 20260902120022 | 24 | 221 | 4.8 | 11.3 | 0.00 | 0.00 | 0.00 | 87 | 1014.0 |
| 20260902115515 | 24 | 233 | 4.8 | 11.3 | 0.00 | 0.00 | 0.00 | 87 | 1013.9 |
| 20260902115022 | 24 | 267 | 4.8 | 8.0 | 0.00 | 0.00 | 0.00 | 87 | 1013.9 |
| 20260902114540 | 24 | 226 | 4.8 | 8.0 | 0.00 | 0.00 | 0.00 | 87 | 1013.9 |
| 20260902114019 | 24 | 197 | 3.2 | 8.0 | 0.00 | 0.00 | 0.00 | 87 | 1013.7 |
| 20260902113519 | 24 | 202 | 1.6 | 6.4 | 0.00 | 0.00 | 0.00 | 87 | 1013.8 |
| 20260902113013 | 24 | 209 | 3.2 | 4.8 | 0.00 | 0.00 | 0.00 | 87 | 1013.8 |
| 20260902112510 | 24 | 200 | 1.6 | 4.8 | 0.00 | 0.00 | 0.00 | 87 | 1013.8 |
| 20260902112015 | 24 | 224 | 3.2 | 6.4 | 0.00 | 0.00 | 0.00 | 87 | 1013.9 |
| 20260902111525 | 24 | 247 | 4.8 | 6.4 | 0.00 | 0.00 | 0.00 | 86 | 1014.1 |
| 20260902111013 | 24 | 253 | 1.6 | 8.0 | 0.00 | 0.00 | 0.00 | 86 | 1014.2 |
| 20260902110521 | 24 | 234 | 3.2 | 8.0 | 0.00 | 0.00 | 0.00 | 86 | 1014.2 |
| 20260902110030 | 24 | 263 | 4.8 | 11.3 | 0.00 | 0.00 | 0.00 | 86 | 1014.3 |
| 20260902105521 | 24 | 245 | 3.2 | 14.5 | 0.00 | 0.00 | 0.00 | 86 | 1014.3 |
| 20260902105008 | 24 | 242 | 6.4 | 14.5 | 0.00 | 0.00 | 0.00 | 86 | 1014.3 |
| 20260902104522 | 24 | 241 | 4.8 | 12.9 | 0.00 | 0.00 | 0.00 | 86 | 1014.0 |
| 20260902104010 | 24 | 257 | 4.8 | 14.5 | 0.00 | 0.00 | 0.00 | 85 | 1014.0 |
| 20260902103514 | 25 | 235 | 6.4 | 14.5 | 0.00 | 0.00 | 0.00 | 85 | 1013.9 |
| 20260902103032 | 25 | 226 | 3.2 | 11.3 | 0.00 | 0.00 | 0.00 | 85 | 1013.9 |
| 20260902102521 | 25 | 205 | 3.2 | 11.3 | 0.00 | 0.00 | 0.00 | 85 | 1013.8 |
| 20260902102018 | 25 | 226 | 4.8 | 11.3 | 0.00 | 0.00 | 0.00 | 85 | 1013.8 |
| 20260902101539 | 25 | 248 | 3.2 | 9.7 | 0.00 | 0.00 | 0.00 | 85 | 1013.8 |
| 20260902101007 | 25 | 234 | 3.2 | 6.4 | 0.00 | 0.00 | 0.00 | 85 | 1013.7 |
| 20260902100510 | 25 | 261 | 1.6 | 9.7 | 0.00 | 0.00 | 0.00 | 85 | 1013.6 |
| 20260902100026 | 25 | 201 | 3.2 | 9.7 | 0.00 | 0.00 | 0.00 | 84 | 1013.6 |
| 20260902095515 | 25 | 256 | 4.8 | 9.7 | 0.00 | 0.00 | 0.00 | 84 | 1013.6 |
| 20260902095017 | 25 | 275 | 3.2 | 14.5 | 0.00 | 0.00 | 0.00 | 84 | 1013.5 |
| 20260902094531 | 25 | 283 | 4.8 | 14.5 | 0.00 | 0.00 | 0.00 | 84 | 1013.6 |
| 20260902094023 | 25 | 236 | 4.8 | 11.3 | 0.00 | 0.00 | 0.00 | 84 | 1013.6 |
| 20260902093519 | 25 | 219 | 6.4 | 11.3 | 0.00 | 0.00 | 0.00 | 84 | 1013.7 |
| 20260902093016 | 25 | 234 | 3.2 | 9.7 | 0.00 | 0.00 | 0.00 | 84 | 1013.7 |
| 20260902092511 | 25 | 243 | 4.8 | 9.7 | 0.00 | 0.00 | 0.00 | 84 | 1013.8 |
| 20260902092013 | 25 | 243 | 4.8 | 9.7 | 0.00 | 0.00 | 0.00 | 84 | 1013.8 |
| 20260902091527 | 25 | 261 | 3.2 | 6.4 | 0.00 | 0.00 | 0.00 | 84 | 1013.8 |
| 20260902091024 | 25 | 180 | 3.2 | 6.4 | 0.00 | 0.00 | 0.00 | 84 | 1013.7 |
| 20260902090519 | 25 | 218 | 1.6 | 4.8 | 0.00 | 0.00 | 0.00 | 83 | 1013.6 |
| 20260902090039 | 25 | 240 | 1.6 | 9.7 | 0.00 | 0.00 | 0.00 | 83 | 1013.7 |
| 20260902085508 | 25 | 196 | 3.2 | 9.7 | 0.00 | 0.00 | 0.00 | 83 | 1013.6 |
| 20260902085009 | 25 | 205 | 1.6 | 6.4 | 0.00 | 0.00 | 0.00 | 83 | 1013.5 |
| 20260902084524 | 25 | 213 | 3.2 | 11.3 | 0.00 | 0.00 | 0.00 | 83 | 1013.5 |
| 20260902084017 | 25 | 212 | 3.2 | 11.3 | 0.00 | 0.00 | 0.00 | 83 | 1013.6 |
| 20260902083504 | 25 | 229 | 4.8 | 8.0 | 0.00 | 0.00 | 0.00 | 83 | 1013.6 |
| 20260902083005 | 25 | 244 | 3.2 | 9.7 | 0.00 | 0.00 | 0.00 | 83 | 1013.6 |
| 20260902082503 | 25 | 244 | 4.8 | 9.7 | 0.00 | 0.00 | 0.00 | 83 | 1013.7 |
| 20260902082008 | 25 | 232 | 1.6 | 6.4 | 0.00 | 0.00 | 0.00 | 83 | 1013.6 |
| 20260902081513 | 25 | 211 | 3.2 | 8.0 | 0.00 | 0.00 | 0.00 | 83 | 1013.5 |
| 20260902081008 | 25 | 228 | 1.6 | 8.0 | 0.00 | 0.00 | 0.00 | 83 | 1013.6 |
| 20260902080512 | 25 | 238 | 3.2 | 6.4 | 0.00 | 0.00 | 0.00 | 83 | 1013.6 |
| 20260902080026 | 25 | 254 | 3.2 | 8.0 | 0.00 | 0.00 | 0.00 | 82 | 1013.4 |
| 20260902075503 | 25 | 191 | 3.2 | 8.0 | 0.00 | 0.00 | 0.00 | 82 | 1013.3 |
| 20260902075003 | 25 | 193 | 4.8 | 8.0 | 0.00 | 0.00 | 0.00 | 82 | 1013.3 |
| 20260902074513 | 25 | 186 | 4.8 | 8.0 | 0.00 | 0.00 | 0.00 | 82 | 1013.4 |
| 20260902074006 | 25 | 217 | 4.8 | 8.0 | 0.00 | 0.00 | 0.00 | 82 | 1013.4 |